ダーウィン の空港の天気 - METARとTAF

ダーウィン国際空港 ( YPDN / DRW ) - オーストラリア ノーザンテリトリーダーウィン
飛行場実況気象(Metar)
観測時間10/18 13:00 ACST (10/18 03:30 UTC)
風向・風速北西 5m/s
視程10km以上
天気現象
全天の4割程度の雲 雲底高度 1160m
気温32℃
湿度56%
気圧1011hPa
METARYPDN 180330Z 31009KT 9999 SCT038 32/22 Q1011 NOSIG
過去の天気等 Google飛行場航空写真 Wunderground天気予報

過去48時間のMETAR

飛行場予報(TAF)
発表時間: 10/18 08:36 ACST (10/17 23:06 UTC)
予報対象時間: 18日9時 ACST ~ 19日15時 ACST
風向・風速北北東 3m/s
視程10km以上
少しの雲 雲底高度 610m
18日13時 ACST から
風向・風速北北西 6m/s
視程10km以上
全天の4割程度の雲 雲底高度 1220m
18日19時 ACST から
風向・風速西北西 3m/s
視程10km以上
少しの雲 雲底高度 610m
19日3時 ACST から
風向・風速南西 3m/s
視程10km以上
少しの雲 雲底高度 610m
19日13時 ACST から
風向・風速西 6m/s
視程10km以上
全天の4割程度の雲 雲底高度 1220m
19日0時 ACST ~ 19日8時 ACST に 確率 30% で一時的に
風向・風速不定 13m/s 瞬間風速 18m/s
視程1000m
天気現象雷雨
全天の8割程度の雲 雲底高度 300m
全天の4割程度の積乱雲 雲底高度 610m
TAF AMD YPDN 172306Z 1800/1906 03006KT 9999 FEW020
FM180400 33012KT 9999 SCT040
FM181000 30005KT 9999 FEW020
FM181800 23005KT 9999 FEW020
FM190400 28012KT 9999 SCT040
PROB30 TEMPO 1815/1823 VRB25G35KT 1000 TSRA BKN010 SCT020CB